createdAt,value
2018-04-16T00:00:49.520Z,15.90
2018-04-16T00:01:49.433Z,16.60
2018-04-16T00:02:49.459Z,21.50
2018-04-16T00:03:49.473Z,16.10
2018-04-16T00:04:49.488Z,15.50
2018-04-16T00:05:49.553Z,15.60
2018-04-16T00:06:49.523Z,18.60
2018-04-16T00:07:49.541Z,18.40
2018-04-16T00:08:49.555Z,16.00
2018-04-16T00:09:49.569Z,13.60
2018-04-16T00:10:49.589Z,17.60
2018-04-16T00:11:49.607Z,17.50
2018-04-16T00:12:49.680Z,15.40
2018-04-16T00:13:49.638Z,16.20
2018-04-16T00:14:49.656Z,16.00
2018-04-16T00:15:49.770Z,16.10
2018-04-16T00:16:49.691Z,19.40
2018-04-16T00:17:49.703Z,16.20
2018-04-16T00:18:49.778Z,18.20
2018-04-16T00:19:49.738Z,15.10
2018-04-16T00:20:49.754Z,16.70
2018-04-16T00:21:49.773Z,18.10
2018-04-16T00:22:49.790Z,14.70
2018-04-16T00:23:49.808Z,13.70
2018-04-16T00:24:49.858Z,17.20
2018-04-16T00:25:49.835Z,21.70
2018-04-16T00:26:49.853Z,18.70
2018-04-16T00:27:49.875Z,16.70
2018-04-16T00:28:49.884Z,20.00
2018-04-16T00:29:49.901Z,17.10
2018-04-16T00:30:49.931Z,16.80
2018-04-16T00:31:49.939Z,19.10
2018-04-16T00:32:49.954Z,20.10
2018-04-16T00:33:49.971Z,18.80
2018-04-16T00:34:49.992Z,19.20
2018-04-16T00:35:50.006Z,18.50
2018-04-16T00:36:50.028Z,15.80
2018-04-16T00:37:50.104Z,17.60
2018-04-16T00:38:50.055Z,19.30
2018-04-16T00:39:50.073Z,17.70
2018-04-16T00:40:50.096Z,18.10
2018-04-16T00:41:50.110Z,15.30
2018-04-16T00:42:50.125Z,14.10
2018-04-16T00:43:50.178Z,17.50
2018-04-16T00:44:50.152Z,18.30
2018-04-16T00:45:50.177Z,18.20
2018-04-16T00:46:50.191Z,19.60
2018-04-16T00:47:50.201Z,16.00
2018-04-16T00:48:50.224Z,16.30
2018-04-16T00:49:50.266Z,15.90
2018-04-16T00:50:50.257Z,18.70
2018-04-16T00:51:50.273Z,20.00
2018-04-16T00:52:50.291Z,19.50
2018-04-16T00:53:50.308Z,19.60
2018-04-16T00:54:50.331Z,18.70
2018-04-16T00:55:50.343Z,19.10
2018-04-16T00:56:50.360Z,14.80
2018-04-16T00:57:50.372Z,18.20
2018-04-16T00:58:50.385Z,20.10
2018-04-16T00:59:50.403Z,19.70
2018-04-16T01:00:50.419Z,19.90
2018-04-16T01:01:50.442Z,18.90
2018-04-16T01:02:50.454Z,22.10
2018-04-16T01:03:50.476Z,20.80
2018-04-16T01:04:50.489Z,20.70
2018-04-16T01:05:50.509Z,16.00
2018-04-16T01:06:50.576Z,20.10
2018-04-16T01:07:50.569Z,18.40
2018-04-16T01:08:50.560Z,16.50
2018-04-16T01:09:50.578Z,22.90
2018-04-16T01:10:50.591Z,20.40
2018-04-16T01:11:50.605Z,18.60
2018-04-16T01:12:50.623Z,17.50
2018-04-16T01:13:50.648Z,19.60
2018-04-16T01:14:50.657Z,19.90
2018-04-16T01:15:50.677Z,19.60
2018-04-16T01:16:50.691Z,16.00
2018-04-16T01:17:50.707Z,19.30
2018-04-16T01:18:50.773Z,21.10
2018-04-16T01:19:50.787Z,17.30
2018-04-16T01:20:50.755Z,18.10
2018-04-16T01:21:50.776Z,15.60
2018-04-16T01:22:50.798Z,16.60
2018-04-16T01:23:50.805Z,18.80
2018-04-16T01:24:50.828Z,16.40
2018-04-16T01:25:50.852Z,18.40
2018-04-16T01:26:50.858Z,19.20
2018-04-16T01:27:50.877Z,15.80
2018-04-16T01:28:50.892Z,18.10
2018-04-16T01:29:50.907Z,22.40
2018-04-16T01:30:50.928Z,18.50
2018-04-16T01:31:50.946Z,17.60
2018-04-16T01:32:50.957Z,20.00
2018-04-16T01:33:51.027Z,18.90
2018-04-16T01:34:50.994Z,17.60
2018-04-16T01:35:51.010Z,14.40
2018-04-16T01:36:51.031Z,19.10
2018-04-16T01:37:51.045Z,19.60
2018-04-16T01:38:51.068Z,17.20
2018-04-16T01:39:51.078Z,15.80
2018-04-16T01:40:51.095Z,21.40
2018-04-16T01:41:51.167Z,14.70
2018-04-16T01:42:51.131Z,17.00
2018-04-16T01:43:51.151Z,18.00
2018-04-16T01:44:51.164Z,17.40
2018-04-16T01:45:51.183Z,19.20
2018-04-16T01:46:51.202Z,17.00
2018-04-16T01:47:51.236Z,19.70
2018-04-16T01:48:51.227Z,20.70
2018-04-16T01:49:51.251Z,18.80
2018-04-16T01:50:51.310Z,20.50
2018-04-16T01:51:51.282Z,16.80
2018-04-16T01:52:51.301Z,16.80
2018-04-16T01:53:51.363Z,21.00
2018-04-16T01:54:51.334Z,18.90
2018-04-16T01:55:51.346Z,16.00
2018-04-16T01:56:51.469Z,19.90
2018-04-16T01:57:51.381Z,16.50
2018-04-16T01:58:51.401Z,17.30
2018-04-16T01:59:51.424Z,17.30
2018-04-16T02:00:51.431Z,16.00
2018-04-16T02:01:51.452Z,16.00
2018-04-16T02:02:51.520Z,19.20
2018-04-16T02:03:51.486Z,16.90
2018-04-16T02:04:51.495Z,20.30
2018-04-16T02:05:51.571Z,14.70
2018-04-16T02:06:51.534Z,16.40
2018-04-16T02:07:51.547Z,18.70
2018-04-16T02:08:51.568Z,16.10
2018-04-16T02:09:51.587Z,17.20
2018-04-16T02:10:51.605Z,18.60
2018-04-16T02:11:51.618Z,14.30
2018-04-16T02:12:51.632Z,13.80
2018-04-16T02:13:51.652Z,17.20
2018-04-16T02:14:51.669Z,15.50
2018-04-16T02:15:51.762Z,21.50
2018-04-16T02:16:51.696Z,17.50
2018-04-16T02:17:51.726Z,15.60
2018-04-16T02:18:51.735Z,13.60
2018-04-16T02:19:51.756Z,17.20
2018-04-16T02:20:51.766Z,14.30
2018-04-16T02:21:51.786Z,15.90
2018-04-16T02:22:51.801Z,16.60
2018-04-16T02:23:51.823Z,18.30
2018-04-16T02:24:51.835Z,22.40
2018-04-16T02:25:51.846Z,21.90
2018-04-16T02:26:51.871Z,19.60
2018-04-16T02:27:51.881Z,17.10
2018-04-16T02:28:51.895Z,12.90
2018-04-16T02:29:51.913Z,16.40
2018-04-16T02:30:51.936Z,18.50
2018-04-16T02:31:51.946Z,14.80
2018-04-16T02:32:51.966Z,18.40
2018-04-16T02:33:52.031Z,15.30
2018-04-16T02:34:52.003Z,17.20
2018-04-16T02:35:52.024Z,14.10
2018-04-16T02:36:52.036Z,17.40
2018-04-16T02:37:52.047Z,19.70
2018-04-16T02:38:52.067Z,17.80
2018-04-16T02:39:52.084Z,15.40
2018-04-16T02:40:52.112Z,14.50
2018-04-16T02:41:52.126Z,19.20
2018-04-16T02:42:52.134Z,20.50
2018-04-16T02:43:52.148Z,17.20
2018-04-16T02:44:52.168Z,15.70
2018-04-16T02:45:52.181Z,18.50
2018-04-16T02:46:52.201Z,19.00
2018-04-16T02:47:52.270Z,14.80
2018-04-16T02:48:52.231Z,18.00
2018-04-16T02:49:52.252Z,15.80
2018-04-16T02:50:52.272Z,13.70
2018-04-16T02:51:52.284Z,15.40
2018-04-16T02:52:52.326Z,17.70
2018-04-16T02:53:52.366Z,17.10
2018-04-16T02:54:52.334Z,15.40
2018-04-16T02:55:52.348Z,16.00
2018-04-16T02:56:52.360Z,16.10
2018-04-16T02:57:52.377Z,16.70
2018-04-16T02:58:52.434Z,18.50
2018-04-16T02:59:52.413Z,17.80
2018-04-16T03:00:52.441Z,13.60
2018-04-16T03:01:52.448Z,15.60
2018-04-16T03:02:52.464Z,17.30
2018-04-16T03:03:52.478Z,15.40
2018-04-16T03:04:52.520Z,19.30
2018-04-16T03:05:52.560Z,17.80
2018-04-16T03:06:52.534Z,15.00
2018-04-16T03:07:52.541Z,19.70
2018-04-16T03:08:52.563Z,13.80
2018-04-16T03:09:52.575Z,14.70
2018-04-16T03:10:52.655Z,17.80
2018-04-16T03:11:52.664Z,14.90
2018-04-16T03:12:52.630Z,19.40
2018-04-16T03:13:52.640Z,22.10
2018-04-16T03:14:52.657Z,16.10
2018-04-16T03:15:52.675Z,15.80
2018-04-16T03:16:52.740Z,17.00
2018-04-16T03:17:52.707Z,15.60
2018-04-16T03:18:52.721Z,15.80
2018-04-16T03:19:52.744Z,18.40
2018-04-16T03:20:52.756Z,13.60
2018-04-16T03:21:52.772Z,17.40
2018-04-16T03:22:52.789Z,14.10
2018-04-16T03:23:52.811Z,16.00
2018-04-16T03:24:52.825Z,14.40
2018-04-16T03:25:52.839Z,14.90
2018-04-16T03:26:52.854Z,17.30
2018-04-16T03:27:52.875Z,18.00
2018-04-16T03:28:52.884Z,13.50
2018-04-16T03:29:53.055Z,16.30
2018-04-16T03:30:52.928Z,15.30
2018-04-16T03:31:52.939Z,12.60
2018-04-16T03:32:52.955Z,14.50
2018-04-16T03:33:52.971Z,16.30
2018-04-16T03:34:52.981Z,17.10
2018-04-16T03:35:53.050Z,13.50
2018-04-16T03:36:53.014Z,13.10
2018-04-16T03:37:53.041Z,14.90
2018-04-16T03:38:53.058Z,13.80
2018-04-16T03:39:53.073Z,17.00
2018-04-16T03:40:53.088Z,13.80
2018-04-16T03:41:53.154Z,15.60
2018-04-16T03:42:53.124Z,15.50
2018-04-16T03:43:53.131Z,16.90
2018-04-16T03:44:53.151Z,15.40
2018-04-16T03:45:53.168Z,12.00
2018-04-16T03:46:53.184Z,13.60
2018-04-16T03:47:53.198Z,13.80
2018-04-16T03:48:53.216Z,15.70
2018-04-16T03:49:53.227Z,16.70
2018-04-16T03:50:53.244Z,11.70
2018-04-16T03:51:53.263Z,15.80
2018-04-16T03:52:53.275Z,14.20
2018-04-16T03:53:53.366Z,14.60
2018-04-16T03:54:53.307Z,18.10
2018-04-16T03:55:53.324Z,17.60
2018-04-16T03:56:53.341Z,14.20
2018-04-16T03:57:53.362Z,14.80
2018-04-16T03:58:53.380Z,14.70
2018-04-16T03:59:53.529Z,17.10
2018-04-16T04:00:53.408Z,16.10
2018-04-16T04:01:53.435Z,15.90
2018-04-16T04:02:53.444Z,16.10
2018-04-16T04:03:53.462Z,17.30
2018-04-16T04:04:53.476Z,17.90
2018-04-16T04:05:53.543Z,15.10
2018-04-16T04:06:53.503Z,17.00
2018-04-16T04:07:53.529Z,18.00
2018-04-16T04:08:53.539Z,17.80
2018-04-16T04:09:53.555Z,12.10
2018-04-16T04:10:53.568Z,18.40
2018-04-16T04:11:53.589Z,19.50
2018-04-16T04:12:53.602Z,18.50
2018-04-16T04:13:53.622Z,17.80
2018-04-16T04:14:53.636Z,18.70
2018-04-16T04:15:53.648Z,16.80
2018-04-16T04:16:53.671Z,17.20
2018-04-16T04:17:53.735Z,13.50
2018-04-16T04:18:53.696Z,15.90
2018-04-16T04:19:53.721Z,16.70
2018-04-16T04:20:53.731Z,18.40
2018-04-16T04:21:53.751Z,12.70
2018-04-16T04:22:53.763Z,13.60
2018-04-16T04:23:53.784Z,15.10
2018-04-16T04:24:53.862Z,15.70
2018-04-16T04:25:53.814Z,17.30
2018-04-16T04:26:53.826Z,12.90
2018-04-16T04:27:53.847Z,12.00
2018-04-16T04:28:53.949Z,13.60
2018-04-16T04:29:53.879Z,17.60
2018-04-16T04:30:53.917Z,14.70
2018-04-16T04:31:53.916Z,15.20
2018-04-16T04:32:53.923Z,13.60
2018-04-16T04:33:53.944Z,16.50
2018-04-16T04:34:53.957Z,15.00
2018-04-16T04:35:54.028Z,13.70
2018-04-16T04:36:54.035Z,14.80
2018-04-16T04:37:54.014Z,14.70
2018-04-16T04:38:54.031Z,17.20
2018-04-16T04:39:54.040Z,13.50
2018-04-16T04:40:54.057Z,15.20
2018-04-16T04:41:54.125Z,14.40
2018-04-16T04:42:54.088Z,15.40
2018-04-16T04:43:54.105Z,12.10
2018-04-16T04:44:54.125Z,13.50
2018-04-16T04:45:54.135Z,16.20
2018-04-16T04:46:54.159Z,16.10
2018-04-16T04:47:54.220Z,13.70
2018-04-16T04:48:54.187Z,18.40
2018-04-16T04:49:54.202Z,14.10
2018-04-16T04:50:54.215Z,14.60
2018-04-16T04:51:54.239Z,18.00
2018-04-16T04:52:54.270Z,13.30
2018-04-16T04:53:54.269Z,14.90
2018-04-16T04:54:54.327Z,12.10
2018-04-16T04:55:54.301Z,14.80
2018-04-16T04:56:54.318Z,13.60
2018-04-16T04:57:54.331Z,13.70
2018-04-16T04:58:54.348Z,14.00
2018-04-16T04:59:54.367Z,13.70
2018-04-16T05:00:54.407Z,14.70
2018-04-16T05:01:54.394Z,15.20
2018-04-16T05:02:54.416Z,14.40
2018-04-16T05:03:54.433Z,15.00
2018-04-16T05:04:54.442Z,11.90
2018-04-16T05:05:54.461Z,14.10
2018-04-16T05:06:54.509Z,13.10
2018-04-16T05:07:54.498Z,14.80
2018-04-16T05:08:54.572Z,13.40
2018-04-16T05:09:54.520Z,13.80
2018-04-16T05:10:54.536Z,11.70
2018-04-16T05:11:54.561Z,13.30
2018-04-16T05:12:54.601Z,11.50
2018-04-16T05:13:54.590Z,12.00
2018-04-16T05:14:54.605Z,11.00
2018-04-16T05:15:54.624Z,13.40
2018-04-16T05:16:54.633Z,11.70
2018-04-16T05:17:54.705Z,16.40
2018-04-16T05:18:54.696Z,13.40
2018-04-16T05:19:54.688Z,15.40
2018-04-16T05:20:54.698Z,14.10
2018-04-16T05:21:54.720Z,14.70
2018-04-16T05:22:54.731Z,12.40
2018-04-16T05:23:54.800Z,15.60
2018-04-16T05:24:54.766Z,11.50
2018-04-16T05:25:54.786Z,13.10
2018-04-16T05:26:54.795Z,10.30
2018-04-16T05:27:54.818Z,14.70
2018-04-16T05:28:54.831Z,11.80
2018-04-16T05:29:54.846Z,14.90
2018-04-16T05:30:54.860Z,13.80
2018-04-16T05:31:54.878Z,15.50
2018-04-16T05:32:54.896Z,11.50
2018-04-16T05:33:54.912Z,11.20
2018-04-16T05:34:54.930Z,11.80
2018-04-16T05:35:54.992Z,12.70
2018-04-16T05:36:54.958Z,12.20
2018-04-16T05:37:54.969Z,14.40
2018-04-16T05:38:54.992Z,12.20
2018-04-16T05:39:55.004Z,14.90
2018-04-16T05:40:55.022Z,11.70
2018-04-16T05:41:55.034Z,12.60
2018-04-16T05:42:55.051Z,13.70
2018-04-16T05:43:55.074Z,12.30
2018-04-16T05:44:55.085Z,14.00
2018-04-16T05:45:55.099Z,13.10
2018-04-16T05:46:55.117Z,13.20
2018-04-16T05:47:55.186Z,13.70
2018-04-16T05:48:55.153Z,14.30
2018-04-16T05:49:55.174Z,14.30
2018-04-16T05:50:55.187Z,14.20
2018-04-16T05:51:55.196Z,14.60
2018-04-16T05:52:55.218Z,11.10
2018-04-16T05:53:55.241Z,12.00
2018-04-16T05:54:55.252Z,13.20
2018-04-16T05:55:55.264Z,13.50
2018-04-16T05:56:55.282Z,14.30
2018-04-16T05:57:55.297Z,12.20
2018-04-16T05:58:55.307Z,15.50
2018-04-16T05:59:55.330Z,16.50
2018-04-16T06:00:55.343Z,17.70
2018-04-16T06:01:55.359Z,13.80
2018-04-16T06:02:55.379Z,13.80
2018-04-16T06:03:55.388Z,12.10
2018-04-16T06:04:55.408Z,16.90
2018-04-16T06:05:55.469Z,16.20
2018-04-16T06:06:55.445Z,13.10
2018-04-16T06:07:55.457Z,13.10
2018-04-16T06:08:55.483Z,16.40
2018-04-16T06:09:55.491Z,12.40
2018-04-16T06:10:55.500Z,13.30
2018-04-16T06:11:55.517Z,12.90
2018-04-16T06:12:55.537Z,15.40
2018-04-16T06:13:55.552Z,13.30
2018-04-16T06:14:55.570Z,16.70
2018-04-16T06:15:55.589Z,18.70
2018-04-16T06:16:55.600Z,12.10
2018-04-16T06:17:55.613Z,11.30
2018-04-16T06:18:55.636Z,12.50
2018-04-16T06:19:55.646Z,15.00
2018-04-16T06:20:55.662Z,12.90
2018-04-16T06:21:55.677Z,14.70
2018-04-16T06:22:55.699Z,14.10
2018-04-16T06:23:55.767Z,12.10
2018-04-16T06:24:55.724Z,16.80
2018-04-16T06:25:55.745Z,13.20
2018-04-16T06:26:55.764Z,14.20
2018-04-16T06:27:55.773Z,16.40
2018-04-16T06:28:55.792Z,16.30
2018-04-16T06:29:55.911Z,19.50
2018-04-16T06:30:55.909Z,18.10
2018-04-16T06:31:55.843Z,16.90
2018-04-16T06:32:55.908Z,13.40
2018-04-16T06:33:55.912Z,20.80
2018-04-16T06:34:55.908Z,20.00
2018-04-16T06:35:55.971Z,19.40
2018-04-16T06:36:56.052Z,20.70
2018-04-16T06:37:55.967Z,14.10
2018-04-16T06:38:55.966Z,18.30
2018-04-16T06:39:55.968Z,15.30
2018-04-16T06:40:55.991Z,16.80
2018-04-16T06:41:56.006Z,17.60
2018-04-16T06:42:56.071Z,16.80
2018-04-16T06:43:56.043Z,13.70
2018-04-16T06:44:56.055Z,17.00
2018-04-16T06:45:56.069Z,19.20
2018-04-16T06:46:56.083Z,16.40
2018-04-16T06:47:56.149Z,15.80
2018-04-16T06:48:56.135Z,15.40
2018-04-16T06:49:56.135Z,15.40
2018-04-16T06:50:56.158Z,18.30
2018-04-16T06:51:56.170Z,19.80
2018-04-16T06:52:56.186Z,19.00
2018-04-16T06:53:56.283Z,19.40
2018-04-16T06:54:56.225Z,18.30
2018-04-16T06:55:56.235Z,16.60
2018-04-16T06:56:56.256Z,14.20
2018-04-16T06:57:56.269Z,12.90
2018-04-16T06:58:56.285Z,16.40
2018-04-16T06:59:56.358Z,13.90
2018-04-16T07:00:56.320Z,17.70
2018-04-16T07:01:56.339Z,19.30
2018-04-16T07:02:56.349Z,20.00
2018-04-16T07:03:56.370Z,20.10
2018-04-16T07:04:56.441Z,19.20
2018-04-16T07:05:56.397Z,18.40
2018-04-16T07:06:56.411Z,20.00
2018-04-16T07:07:56.499Z,22.20
2018-04-16T07:08:56.447Z,20.00
2018-04-16T07:09:56.461Z,22.90
2018-04-16T07:10:56.532Z,24.80
2018-04-16T07:11:56.503Z,76.90
2018-04-16T07:12:56.516Z,113.90
2018-04-16T07:13:56.545Z,95.20
2018-04-16T07:14:56.550Z,37.70
2018-04-16T07:15:56.637Z,22.60
2018-04-16T07:16:56.578Z,20.90
2018-04-16T07:17:56.594Z,27.60
2018-04-16T07:18:56.617Z,44.10
2018-04-16T07:19:56.690Z,17.40
2018-04-16T07:20:56.647Z,20.30
2018-04-16T07:21:56.681Z,18.60
2018-04-16T07:22:56.691Z,22.70
2018-04-16T07:23:56.698Z,36.00
2018-04-16T07:24:56.717Z,20.80
2018-04-16T07:25:56.750Z,27.40
2018-04-16T07:26:56.751Z,23.50
2018-04-16T07:27:56.772Z,22.50
2018-04-16T07:28:56.785Z,22.70
2018-04-16T07:29:56.806Z,27.40
2018-04-16T07:30:56.824Z,26.70
2018-04-16T07:31:56.891Z,26.40
2018-04-16T07:32:56.858Z,26.80
2018-04-16T07:33:56.878Z,26.50
2018-04-16T07:34:56.944Z,21.30
2018-04-16T07:35:56.916Z,25.70
2018-04-16T07:36:56.926Z,24.30
2018-04-16T07:37:56.943Z,24.90
2018-04-16T07:38:56.964Z,23.40
2018-04-16T07:39:56.985Z,23.60
2018-04-16T07:40:57.007Z,23.90
2018-04-16T07:41:57.023Z,25.00
2018-04-16T07:42:57.050Z,25.40
2018-04-16T07:43:57.074Z,24.90
2018-04-16T07:44:57.078Z,24.60
2018-04-16T07:45:57.113Z,23.70
2018-04-16T07:46:57.110Z,22.70
2018-04-16T07:47:57.127Z,19.70
2018-04-16T07:48:57.158Z,21.10
2018-04-16T07:49:57.168Z,18.70
2018-04-16T07:50:57.187Z,20.60
2018-04-16T07:51:57.207Z,19.60
2018-04-16T07:52:57.223Z,20.90
2018-04-16T07:53:57.243Z,23.40
2018-04-16T07:54:57.262Z,23.50
2018-04-16T07:55:57.284Z,21.40
2018-04-16T07:56:57.295Z,19.20
2018-04-16T07:57:57.317Z,20.40
2018-04-16T07:58:57.390Z,21.10
2018-04-16T07:59:57.358Z,20.10
2018-04-16T08:00:57.378Z,21.20
2018-04-16T08:01:57.391Z,20.00
2018-04-16T08:02:57.499Z,20.80
2018-04-16T08:03:57.435Z,17.30
2018-04-16T08:04:57.454Z,19.80
2018-04-16T08:05:57.472Z,20.20
2018-04-16T08:06:57.486Z,21.50
2018-04-16T08:07:57.512Z,18.60
2018-04-16T08:08:57.588Z,17.10
2018-04-16T08:09:57.552Z,16.70
2018-04-16T08:10:57.615Z,17.90
2018-04-16T08:11:57.591Z,17.00
2018-04-16T08:12:57.608Z,15.70
2018-04-16T08:13:57.628Z,16.50
2018-04-16T08:14:57.685Z,20.50
2018-04-16T08:15:57.692Z,17.50
2018-04-16T08:16:57.686Z,20.00
2018-04-16T08:17:57.709Z,20.20
2018-04-16T08:18:57.723Z,17.80
2018-04-16T08:19:57.752Z,16.20
2018-04-16T08:20:57.762Z,18.00
2018-04-16T08:21:57.788Z,20.90
2018-04-16T08:22:57.875Z,17.70
2018-04-16T08:23:57.828Z,17.90
2018-04-16T08:24:57.841Z,19.50
2018-04-16T08:25:57.863Z,15.10
2018-04-16T08:26:57.897Z,13.50
2018-04-16T08:27:57.905Z,18.90
2018-04-16T08:28:57.973Z,16.30
2018-04-16T08:29:57.945Z,13.60
2018-04-16T08:30:57.967Z,15.00
2018-04-16T08:31:57.984Z,15.40
2018-04-16T08:32:58.004Z,17.20
2018-04-16T08:33:58.024Z,15.50
2018-04-16T08:34:58.102Z,15.50
2018-04-16T08:35:58.067Z,16.20
2018-04-16T08:36:58.091Z,12.90
2018-04-16T08:37:58.109Z,14.30
2018-04-16T08:38:58.124Z,15.00
2018-04-16T08:39:58.154Z,14.00
2018-04-16T08:40:58.220Z,15.30
2018-04-16T08:41:58.184Z,16.00
2018-04-16T08:42:58.205Z,20.00
2018-04-16T08:43:58.231Z,16.60
2018-04-16T08:44:58.248Z,16.50
2018-04-16T08:45:58.265Z,13.80
2018-04-16T08:46:58.343Z,15.90
2018-04-16T08:47:58.307Z,17.10
2018-04-16T08:48:58.328Z,15.00
2018-04-16T08:49:58.355Z,18.80
2018-04-16T08:50:58.371Z,16.60
2018-04-16T08:51:58.388Z,16.30
2018-04-16T08:52:58.414Z,19.50
2018-04-16T08:53:58.435Z,18.80
2018-04-16T08:54:58.450Z,17.00
2018-04-16T08:55:58.476Z,18.10
2018-04-16T08:56:58.486Z,18.70
2018-04-16T08:57:58.589Z,14.90
2018-04-16T08:58:58.532Z,16.40
2018-04-16T08:59:58.549Z,13.60
2018-04-16T09:00:58.568Z,16.20
2018-04-16T09:01:58.588Z,18.00
2018-04-16T09:02:58.612Z,17.30
2018-04-16T09:03:58.639Z,15.50
2018-04-16T09:04:58.645Z,19.30
2018-04-16T09:05:58.668Z,16.20
2018-04-16T09:06:58.691Z,17.80
2018-04-16T09:07:58.709Z,15.70
2018-04-16T09:08:58.724Z,17.30
2018-04-16T09:09:58.742Z,17.40
2018-04-16T09:10:58.810Z,15.90
2018-04-16T09:11:58.783Z,13.70
2018-04-16T09:12:58.803Z,14.00
2018-04-16T09:13:58.822Z,12.70
2018-04-16T09:14:58.842Z,14.40
2018-04-16T09:15:58.906Z,14.70
2018-04-16T09:16:58.883Z,11.40
2018-04-16T09:17:58.904Z,12.10
2018-04-16T09:18:58.922Z,13.10
2018-04-16T09:19:58.935Z,12.40
2018-04-16T09:20:58.955Z,10.30
2018-04-16T09:21:59.038Z,14.10
2018-04-16T09:22:58.996Z,14.90
2018-04-16T09:23:59.018Z,13.90
2018-04-16T09:24:59.040Z,11.70
2018-04-16T09:25:59.054Z,13.60
2018-04-16T09:26:59.084Z,12.10
2018-04-16T09:27:59.099Z,10.10
2018-04-16T09:28:59.165Z,11.70
2018-04-16T09:29:59.145Z,13.80
2018-04-16T09:30:59.163Z,13.50
2018-04-16T09:31:59.177Z,12.90
2018-04-16T09:32:59.198Z,13.40
2018-04-16T09:33:59.304Z,10.20
2018-04-16T09:34:59.237Z,10.90
2018-04-16T09:35:59.261Z,14.20
2018-04-16T09:36:59.275Z,13.50
2018-04-16T09:37:59.299Z,13.20
2018-04-16T09:38:59.313Z,11.10
2018-04-16T09:39:59.458Z,13.10
2018-04-16T09:40:59.361Z,12.60
2018-04-16T09:41:59.380Z,9.90
2018-04-16T09:42:59.398Z,12.10
2018-04-16T09:43:59.423Z,9.80
2018-04-16T09:44:59.438Z,10.80
2018-04-16T09:45:59.505Z,13.80
2018-04-16T09:46:59.480Z,12.80
2018-04-16T09:47:59.499Z,13.30
2018-04-16T09:48:59.520Z,12.90
2018-04-16T09:49:59.537Z,13.60
2018-04-16T09:50:59.561Z,12.70
2018-04-16T09:51:59.642Z,13.90
2018-04-16T09:52:59.601Z,12.00
2018-04-16T09:53:59.619Z,14.70
2018-04-16T09:54:59.638Z,12.30
2018-04-16T09:55:59.699Z,12.60
2018-04-16T09:56:59.683Z,10.10
2018-04-16T09:57:59.713Z,11.70
2018-04-16T09:58:59.771Z,11.50
2018-04-16T09:59:59.749Z,12.60
2018-04-16T10:00:59.779Z,12.30
2018-04-16T10:01:59.795Z,10.30
2018-04-16T10:02:59.810Z,10.60
2018-04-16T10:03:59.885Z,13.30
2018-04-16T10:04:59.847Z,11.90
2018-04-16T10:05:59.905Z,12.60
2018-04-16T10:06:59.888Z,11.20
2018-04-16T10:07:59.911Z,12.80
2018-04-16T10:08:59.930Z,10.80
2018-04-16T10:10:00.046Z,11.90
2018-04-16T10:10:59.975Z,11.50
2018-04-16T10:11:59.996Z,11.10
2018-04-16T10:13:00.023Z,9.20
2018-04-16T10:14:00.042Z,11.20
2018-04-16T10:15:00.063Z,12.10
2018-04-16T10:16:00.166Z,11.90
2018-04-16T10:17:00.153Z,10.50
2018-04-16T10:18:00.143Z,10.80
2018-04-16T10:19:00.147Z,9.60
2018-04-16T10:20:00.168Z,10.90
2018-04-16T10:21:00.191Z,10.70
2018-04-16T10:22:00.212Z,9.90
2018-04-16T10:23:00.278Z,11.00
2018-04-16T10:25:00.270Z,10.70
2018-04-16T10:26:00.297Z,12.10
2018-04-16T10:27:00.320Z,10.70
2018-04-16T10:28:00.331Z,11.50
2018-04-16T10:29:00.405Z,9.40
2018-04-16T10:30:00.384Z,12.60
2018-04-16T10:31:00.399Z,8.50
2018-04-16T10:32:00.417Z,9.30
2018-04-16T10:33:00.439Z,10.20
2018-04-16T10:34:00.465Z,8.70
2018-04-16T10:35:00.533Z,10.00
2018-04-16T10:36:00.506Z,9.00
2018-04-16T10:37:00.524Z,11.10
2018-04-16T10:38:00.543Z,8.90
2018-04-16T10:39:00.568Z,8.70
2018-04-16T10:40:00.586Z,10.50
2018-04-16T10:41:00.659Z,8.50
2018-04-16T10:42:00.640Z,7.50
2018-04-16T10:43:00.651Z,8.50
2018-04-16T10:44:00.671Z,9.50
2018-04-16T10:45:00.692Z,10.20
2018-04-16T10:46:00.780Z,8.60
2018-04-16T10:47:00.787Z,10.00
2018-04-16T10:48:00.755Z,9.00
2018-04-16T10:49:00.776Z,8.40
2018-04-16T10:50:00.802Z,8.10
2018-04-16T10:51:00.820Z,8.40
2018-04-16T10:52:00.925Z,7.30
2018-04-16T10:53:00.912Z,11.40
2018-04-16T10:54:00.878Z,9.20
2018-04-16T10:55:00.899Z,10.20
2018-04-16T10:56:00.921Z,6.80
2018-04-16T10:57:00.941Z,7.30
2018-04-16T10:58:01.010Z,7.60
2018-04-16T10:59:01.041Z,8.10
2018-04-16T11:00:01.011Z,6.80
2018-04-16T11:01:01.033Z,7.20
2018-04-16T11:02:01.055Z,8.20
2018-04-16T11:03:01.072Z,7.90
2018-04-16T11:04:01.096Z,8.40
2018-04-16T11:05:01.169Z,8.70
2018-04-16T11:06:01.139Z,10.90
2018-04-16T11:07:01.168Z,9.00
2018-04-16T11:08:01.178Z,10.80
2018-04-16T11:09:01.199Z,10.00
2018-04-16T11:10:01.223Z,9.90
2018-04-16T11:11:01.251Z,9.70
2018-04-16T11:12:01.262Z,9.90
2018-04-16T11:13:01.313Z,9.20
2018-04-16T11:14:01.312Z,7.20
2018-04-16T11:15:01.334Z,8.10
2018-04-16T11:16:01.353Z,8.50
2018-04-16T11:17:01.467Z,11.20
2018-04-16T11:18:01.403Z,10.30
2018-04-16T11:19:01.417Z,8.50
2018-04-16T11:20:01.438Z,8.90
2018-04-16T11:21:01.462Z,8.10
2018-04-16T11:22:01.495Z,9.50
2018-04-16T11:23:01.498Z,9.90
2018-04-16T11:24:01.520Z,9.80
2018-04-16T11:25:01.544Z,9.70
2018-04-16T11:26:01.570Z,9.80
2018-04-16T11:27:01.594Z,7.90
2018-04-16T11:28:01.613Z,9.20
2018-04-16T11:29:01.724Z,9.80
2018-04-16T11:30:01.653Z,9.20
2018-04-16T11:31:01.683Z,11.40
2018-04-16T11:32:01.698Z,8.00
2018-04-16T11:33:01.712Z,8.50
2018-04-16T11:34:01.736Z,8.30
2018-04-16T11:35:01.835Z,12.80
2018-04-16T11:36:01.778Z,7.90
2018-04-16T11:37:01.800Z,10.50
2018-04-16T11:38:01.829Z,11.70
2018-04-16T11:39:01.838Z,10.10
2018-04-16T11:40:01.916Z,7.60
2018-04-16T11:41:01.883Z,9.60
2018-04-16T11:42:01.901Z,10.70
2018-04-16T11:43:01.930Z,10.00
2018-04-16T11:44:01.948Z,9.60
2018-04-16T11:45:01.964Z,11.40
2018-04-16T11:46:01.989Z,12.20
2018-04-16T11:47:02.080Z,9.20
2018-04-16T11:48:02.033Z,10.00
2018-04-16T11:49:02.048Z,9.60
2018-04-16T11:50:02.073Z,10.50
2018-04-16T11:51:02.091Z,8.30
2018-04-16T11:52:02.168Z,10.00
2018-04-16T11:53:02.187Z,42.00
2018-04-16T11:54:02.152Z,9.40
2018-04-16T11:55:02.170Z,9.90
2018-04-16T11:56:02.194Z,7.70
2018-04-16T11:57:02.216Z,10.80
2018-04-16T11:58:02.238Z,9.60
2018-04-16T11:59:02.317Z,10.20
2018-04-16T12:00:02.275Z,8.90
2018-04-16T12:01:02.299Z,9.20
2018-04-16T12:02:02.328Z,9.50
2018-04-16T12:03:02.345Z,9.90
2018-04-16T12:04:02.364Z,8.80
2018-04-16T12:05:02.416Z,10.80
2018-04-16T12:06:02.404Z,10.10
2018-04-16T12:07:02.429Z,12.30
2018-04-16T12:08:02.443Z,11.00
2018-04-16T12:09:02.465Z,9.70
2018-04-16T12:10:02.539Z,9.90
2018-04-16T12:11:02.511Z,11.30
2018-04-16T12:12:02.526Z,12.20
2018-04-16T12:13:02.557Z,12.60
2018-04-16T12:14:02.572Z,9.50
2018-04-16T12:15:02.591Z,9.60
2018-04-16T12:16:02.668Z,10.30
2018-04-16T12:17:02.712Z,10.50
2018-04-16T12:18:02.654Z,12.00
2018-04-16T12:19:02.683Z,9.90
2018-04-16T12:20:02.700Z,10.40
2018-04-16T12:21:02.719Z,10.80
2018-04-16T12:22:02.794Z,8.30
2018-04-16T12:23:02.827Z,10.10
2018-04-16T12:24:02.790Z,8.70
2018-04-16T12:25:02.804Z,9.10
2018-04-16T12:26:02.824Z,10.00
2018-04-16T12:27:02.848Z,10.20
2018-04-16T12:28:02.921Z,10.60
2018-04-16T12:29:02.885Z,9.60
2018-04-16T12:30:02.910Z,10.40
2018-04-16T12:31:02.939Z,9.20
2018-04-16T12:32:02.952Z,9.90
2018-04-16T12:33:03.020Z,9.10
2018-04-16T12:34:03.050Z,8.60
2018-04-16T12:35:03.017Z,7.90
2018-04-16T12:36:03.041Z,8.50
2018-04-16T12:37:03.055Z,7.00
2018-04-16T12:38:03.081Z,8.60
2018-04-16T12:39:03.138Z,9.50
2018-04-16T12:40:03.139Z,8.50
2018-04-16T12:41:03.144Z,9.20
2018-04-16T12:42:03.171Z,10.50
2018-04-16T12:43:03.185Z,8.90
2018-04-16T12:44:03.207Z,7.70
2018-04-16T12:45:03.233Z,11.10
2018-04-16T12:46:03.253Z,8.40
2018-04-16T12:47:03.283Z,10.50
2018-04-16T12:48:03.317Z,9.30
2018-04-16T12:49:03.311Z,10.80
2018-04-16T12:50:03.334Z,9.80
2018-04-16T12:51:03.347Z,11.90
2018-04-16T12:52:03.423Z,7.60
2018-04-16T12:53:03.406Z,8.60
2018-04-16T12:54:03.426Z,9.50
2018-04-16T12:55:03.431Z,9.10
2018-04-16T12:56:03.455Z,10.00
2018-04-16T12:57:03.477Z,9.50